Terminal Aerodrome Forecast
Issued by NWS

Home | Current Version | Previous Version | Text Only | Print | Product List | Glossary On
Versions: 1 2 3 4 5 6 7 8 9 10 11 12 13 14 15 16 17 18 19 20
318
FTUS43 KICT 212339
TAFCNU
TAF
KCNU 212339Z 2200/2224 09006KT P6SM -RA OVC060
     FM220400 05008KT 6SM -RA OVC035
     FM220800 02010KT 5SM -RA BR OVC025
     FM221100 36013KT 5SM SHRA BR OVC015
     FM221600 35014G20KT P6SM SCT025 BKN100=

USA.gov is the U.S. government's official web portal to all federal, state and local government web resources and services.